Terminal Aerodrome Forecast
Issued by NWS

Home | Current Version | Previous Version | Text Only | Print | Product List | Glossary On
Versions: 1 2 3 4 5 6 7 8 9 10 11 12 13 14 15 16 17 18 19 20
000
FTUS43 KGRB 301100
TAFMTW
TAF
KMTW 301127Z 3012/3112 01005KT P6SM SCT020 SCT050
     FM302000 14007KT P6SM SCT030 BKN070
     FM310300 23004KT 6SM BR SCT080=

USA.gov is the U.S. government's official web portal to all federal, state and local government web resources and services.